sensor_id;sensor_type;location;lat;lon;timestamp;temperature;humidity
16273;DHT22;8244;50.044;9.006;2022-11-15T00:03:14;10.90;99.90
16273;DHT22;8244;50.044;9.006;2022-11-15T00:08:16;10.80;99.90
16273;DHT22;8244;50.044;9.006;2022-11-15T00:13:19;10.70;99.90
16273;DHT22;8244;50.044;9.006;2022-11-15T00:18:21;10.70;99.90
16273;DHT22;8244;50.044;9.006;2022-11-15T00:23:22;10.60;99.90
16273;DHT22;8244;50.044;9.006;2022-11-15T00:28:25;10.50;99.90
16273;DHT22;8244;50.044;9.006;2022-11-15T00:33:27;10.50;99.90
16273;DHT22;8244;50.044;9.006;2022-11-15T00:38:31;10.50;99.90
16273;DHT22;8244;50.044;9.006;2022-11-15T00:43:34;10.40;99.90
16273;DHT22;8244;50.044;9.006;2022-11-15T00:48:36;10.40;99.90
16273;DHT22;8244;50.044;9.006;2022-11-15T00:53:38;10.40;99.90
16273;DHT22;8244;50.044;9.006;2022-11-15T00:58:41;10.40;99.90
16273;DHT22;8244;50.044;9.006;2022-11-15T01:03:42;10.30;99.90
16273;DHT22;8244;50.044;9.006;2022-11-15T01:08:44;10.30;99.90
16273;DHT22;8244;50.044;9.006;2022-11-15T01:13:47;10.30;99.90
16273;DHT22;8244;50.044;9.006;2022-11-15T01:18:48;10.30;99.90
16273;DHT22;8244;50.044;9.006;2022-11-15T01:23:52;10.30;99.90
16273;DHT22;8244;50.044;9.006;2022-11-15T01:28:56;10.30;99.90
16273;DHT22;8244;50.044;9.006;2022-11-15T01:33:58;10.30;99.90
16273;DHT22;8244;50.044;9.006;2022-11-15T01:39:00;10.20;99.90
16273;DHT22;8244;50.044;9.006;2022-11-15T01:44:31;10.20;99.90
16273;DHT22;8244;50.044;9.006;2022-11-15T01:49:38;10.20;99.90
16273;DHT22;8244;50.044;9.006;2022-11-15T01:54:40;10.10;99.90
16273;DHT22;8244;50.044;9.006;2022-11-15T01:59:44;10.20;99.90
16273;DHT22;8244;50.044;9.006;2022-11-15T02:04:47;10.20;99.90
16273;DHT22;8244;50.044;9.006;2022-11-15T02:09:49;10.10;99.90
16273;DHT22;8244;50.044;9.006;2022-11-15T02:14:54;10.10;99.90
16273;DHT22;8244;50.044;9.006;2022-11-15T02:20:14;10.10;99.90
16273;DHT22;8244;50.044;9.006;2022-11-15T02:25:37;10.00;99.90
16273;DHT22;8244;50.044;9.006;2022-11-15T02:30:43;9.90;99.90
16273;DHT22;8244;50.044;9.006;2022-11-15T02:35:55;10.00;99.90
16273;DHT22;8244;50.044;9.006;2022-11-15T02:41:02;9.90;99.90
16273;DHT22;8244;50.044;9.006;2022-11-15T02:46:12;9.90;99.90
16273;DHT22;8244;50.044;9.006;2022-11-15T02:51:16;10.00;99.90
16273;DHT22;8244;50.044;9.006;2022-11-15T02:56:18;10.00;99.90
16273;DHT22;8244;50.044;9.006;2022-11-15T03:01:33;10.00;99.90
16273;DHT22;8244;50.044;9.006;2022-11-15T03:06:41;10.00;99.90
16273;DHT22;8244;50.044;9.006;2022-11-15T03:11:47;10.10;99.90
16273;DHT22;8244;50.044;9.006;2022-11-15T03:16:56;10.00;99.90
16273;DHT22;8244;50.044;9.006;2022-11-15T03:22:03;10.00;99.90
16273;DHT22;8244;50.044;9.006;2022-11-15T03:27:07;9.90;99.90
16273;DHT22;8244;50.044;9.006;2022-11-15T03:32:15;9.90;99.90
16273;DHT22;8244;50.044;9.006;2022-11-15T03:37:20;9.90;99.90
16273;DHT22;8244;50.044;9.006;2022-11-15T03:42:28;9.80;99.90
16273;DHT22;8244;50.044;9.006;2022-11-15T03:47:35;9.80;99.90
16273;DHT22;8244;50.044;9.006;2022-11-15T03:52:39;9.80;99.90
16273;DHT22;8244;50.044;9.006;2022-11-15T03:57:41;9.70;99.90
16273;DHT22;8244;50.044;9.006;2022-11-15T04:02:44;9.70;99.90
16273;DHT22;8244;50.044;9.006;2022-11-15T04:07:46;9.60;99.90
16273;DHT22;8244;50.044;9.006;2022-11-15T04:12:48;9.60;99.90
16273;DHT22;8244;50.044;9.006;2022-11-15T04:17:53;9.60;99.90
16273;DHT22;8244;50.044;9.006;2022-11-15T04:22:55;9.60;99.90
16273;DHT22;8244;50.044;9.006;2022-11-15T04:28:15;9.60;99.90
16273;DHT22;8244;50.044;9.006;2022-11-15T04:33:18;9.70;99.90
16273;DHT22;8244;50.044;9.006;2022-11-15T04:38:20;9.70;99.90
16273;DHT22;8244;50.044;9.006;2022-11-15T04:43:22;9.70;99.90
16273;DHT22;8244;50.044;9.006;2022-11-15T04:48:24;9.80;99.90
16273;DHT22;8244;50.044;9.006;2022-11-15T04:53:27;9.80;99.90
16273;DHT22;8244;50.044;9.006;2022-11-15T04:58:29;9.80;99.90
16273;DHT22;8244;50.044;9.006;2022-11-15T05:03:32;9.90;99.90
16273;DHT22;8244;50.044;9.006;2022-11-15T05:08:51;9.90;99.90
16273;DHT22;8244;50.044;9.006;2022-11-15T05:13:53;9.90;99.90
16273;DHT22;8244;50.044;9.006;2022-11-15T05:18:56;9.90;99.90
16273;DHT22;8244;50.044;9.006;2022-11-15T05:23:58;10.00;99.90
16273;DHT22;8244;50.044;9.006;2022-11-15T05:29:00;9.90;99.90
16273;DHT22;8244;50.044;9.006;2022-11-15T05:34:04;9.90;99.90
16273;DHT22;8244;50.044;9.006;2022-11-15T05:39:07;9.90;99.90
16273;DHT22;8244;50.044;9.006;2022-11-15T05:44:10;9.90;99.90
16273;DHT22;8244;50.044;9.006;2022-11-15T05:49:16;9.90;99.90
16273;DHT22;8244;50.044;9.006;2022-11-15T05:54:22;9.90;99.90
16273;DHT22;8244;50.044;9.006;2022-11-15T05:59:24;9.80;99.90
16273;DHT22;8244;50.044;9.006;2022-11-15T06:04:28;9.80;99.90
16273;DHT22;8244;50.044;9.006;2022-11-15T06:09:30;9.80;99.90
16273;DHT22;8244;50.044;9.006;2022-11-15T06:14:32;9.80;99.90
16273;DHT22;8244;50.044;9.006;2022-11-15T06:19:35;9.80;99.90
16273;DHT22;8244;50.044;9.006;2022-11-15T06:24:36;9.70;99.90
16273;DHT22;8244;50.044;9.006;2022-11-15T06:29:38;9.70;99.90
16273;DHT22;8244;50.044;9.006;2022-11-15T06:34:41;9.80;99.90
16273;DHT22;8244;50.044;9.006;2022-11-15T06:39:43;9.70;99.90
16273;DHT22;8244;50.044;9.006;2022-11-15T06:44:44;9.80;99.90
16273;DHT22;8244;50.044;9.006;2022-11-15T06:49:47;9.80;99.90
16273;DHT22;8244;50.044;9.006;2022-11-15T06:54:49;9.90;99.90
16273;DHT22;8244;50.044;9.006;2022-11-15T06:59:50;9.90;99.90
16273;DHT22;8244;50.044;9.006;2022-11-15T07:04:53;9.90;99.90
16273;DHT22;8244;50.044;9.006;2022-11-15T07:09:55;9.90;99.90
16273;DHT22;8244;50.044;9.006;2022-11-15T07:14:57;10.00;99.90
16273;DHT22;8244;50.044;9.006;2022-11-15T07:20:00;10.00;99.90
16273;DHT22;8244;50.044;9.006;2022-11-15T07:25:02;10.00;99.90
16273;DHT22;8244;50.044;9.006;2022-11-15T07:30:05;10.00;99.90
16273;DHT22;8244;50.044;9.006;2022-11-15T07:35:08;10.00;99.90
16273;DHT22;8244;50.044;9.006;2022-11-15T07:40:11;10.10;99.90
16273;DHT22;8244;50.044;9.006;2022-11-15T07:45:12;10.20;99.90
16273;DHT22;8244;50.044;9.006;2022-11-15T07:50:16;10.70;99.90
16273;DHT22;8244;50.044;9.006;2022-11-15T07:55:18;11.40;99.90
16273;DHT22;8244;50.044;9.006;2022-11-15T08:00:20;11.80;99.90
16273;DHT22;8244;50.044;9.006;2022-11-15T08:05:23;11.80;99.90
16273;DHT22;8244;50.044;9.006;2022-11-15T08:10:25;11.80;99.90
16273;DHT22;8244;50.044;9.006;2022-11-15T08:15:28;11.80;99.90
16273;DHT22;8244;50.044;9.006;2022-11-15T08:20:31;11.90;99.90
16273;DHT22;8244;50.044;9.006;2022-11-15T08:25:35;11.90;99.90
16273;DHT22;8244;50.044;9.006;2022-11-15T08:30:38;12.00;99.90
16273;DHT22;8244;50.044;9.006;2022-11-15T08:35:43;12.10;99.90
16273;DHT22;8244;50.044;9.006;2022-11-15T08:40:45;12.20;99.90
16273;DHT22;8244;50.044;9.006;2022-11-15T08:45:47;12.30;99.90
16273;DHT22;8244;50.044;9.006;2022-11-15T08:50:53;12.40;99.90
16273;DHT22;8244;50.044;9.006;2022-11-15T08:55:55;12.50;99.90
16273;DHT22;8244;50.044;9.006;2022-11-15T09:00:57;12.50;99.90
16273;DHT22;8244;50.044;9.006;2022-11-15T09:06:01;12.50;99.90
16273;DHT22;8244;50.044;9.006;2022-11-15T09:11:03;12.50;99.90
16273;DHT22;8244;50.044;9.006;2022-11-15T09:16:05;12.50;99.90
16273;DHT22;8244;50.044;9.006;2022-11-15T09:21:09;12.60;99.90
16273;DHT22;8244;50.044;9.006;2022-11-15T09:26:11;12.60;99.90
16273;DHT22;8244;50.044;9.006;2022-11-15T09:31:13;12.70;99.90
16273;DHT22;8244;50.044;9.006;2022-11-15T09:36:16;12.80;99.90
16273;DHT22;8244;50.044;9.006;2022-11-15T09:41:26;12.80;99.90
16273;DHT22;8244;50.044;9.006;2022-11-15T09:46:37;12.90;99.90
16273;DHT22;8244;50.044;9.006;2022-11-15T09:51:44;13.00;99.90
16273;DHT22;8244;50.044;9.006;2022-11-15T09:56:48;13.10;99.90
16273;DHT22;8244;50.044;9.006;2022-11-15T10:01:55;13.30;99.90
16273;DHT22;8244;50.044;9.006;2022-11-15T10:07:04;13.50;99.90
16273;DHT22;8244;50.044;9.006;2022-11-15T10:12:07;13.60;99.90
16273;DHT22;8244;50.044;9.006;2022-11-15T10:17:20;13.70;99.90
16273;DHT22;8244;50.044;9.006;2022-11-15T10:22:29;13.80;99.90
16273;DHT22;8244;50.044;9.006;2022-11-15T10:27:32;14.00;99.90
16273;DHT22;8244;50.044;9.006;2022-11-15T10:32:35;14.20;99.90
16273;DHT22;8244;50.044;9.006;2022-11-15T10:37:38;14.40;99.90
16273;DHT22;8244;50.044;9.006;2022-11-15T10:42:40;14.50;99.90
16273;DHT22;8244;50.044;9.006;2022-11-15T10:47:42;14.60;99.90
16273;DHT22;8244;50.044;9.006;2022-11-15T10:52:46;14.80;99.90
16273;DHT22;8244;50.044;9.006;2022-11-15T10:57:50;14.90;99.90
16273;DHT22;8244;50.044;9.006;2022-11-15T11:02:58;15.00;99.90
16273;DHT22;8244;50.044;9.006;2022-11-15T11:08:05;15.10;99.90
16273;DHT22;8244;50.044;9.006;2022-11-15T11:13:23;15.10;99.90
16273;DHT22;8244;50.044;9.006;2022-11-15T11:18:27;15.20;99.90
16273;DHT22;8244;50.044;9.006;2022-11-15T11:23:43;15.10;99.90
16273;DHT22;8244;50.044;9.006;2022-11-15T11:28:50;15.00;99.90
16273;DHT22;8244;50.044;9.006;2022-11-15T11:34:00;15.00;99.90
16273;DHT22;8244;50.044;9.006;2022-11-15T11:39:19;15.00;99.90
16273;DHT22;8244;50.044;9.006;2022-11-15T11:44:30;15.00;99.90
16273;DHT22;8244;50.044;9.006;2022-11-15T11:49:39;15.20;99.90
16273;DHT22;8244;50.044;9.006;2022-11-15T11:54:49;15.30;99.90
16273;DHT22;8244;50.044;9.006;2022-11-15T11:59:58;15.40;99.90
16273;DHT22;8244;50.044;9.006;2022-11-15T12:05:09;15.40;99.90
16273;DHT22;8244;50.044;9.006;2022-11-15T12:10:20;15.50;99.90
16273;DHT22;8244;50.044;9.006;2022-11-15T12:15:26;15.50;99.90
16273;DHT22;8244;50.044;9.006;2022-11-15T12:20:33;15.60;99.90
16273;DHT22;8244;50.044;9.006;2022-11-15T12:25:44;15.70;99.90
16273;DHT22;8244;50.044;9.006;2022-11-15T12:30:51;15.80;99.90
16273;DHT22;8244;50.044;9.006;2022-11-15T12:35:58;15.90;99.90
16273;DHT22;8244;50.044;9.006;2022-11-15T12:41:15;16.10;99.90
16273;DHT22;8244;50.044;9.006;2022-11-15T12:46:58;16.30;99.90
16273;DHT22;8244;50.044;9.006;2022-11-15T12:52:06;16.30;99.90
16273;DHT22;8244;50.044;9.006;2022-11-15T12:57:34;16.40;99.90
16273;DHT22;8244;50.044;9.006;2022-11-15T13:02:38;16.40;99.90
16273;DHT22;8244;50.044;9.006;2022-11-15T13:07:56;16.30;99.90
16273;DHT22;8244;50.044;9.006;2022-11-15T13:13:01;16.30;99.90
16273;DHT22;8244;50.044;9.006;2022-11-15T13:18:33;16.30;99.90
16273;DHT22;8244;50.044;9.006;2022-11-15T13:23:35;16.30;99.90
16273;DHT22;8244;50.044;9.006;2022-11-15T13:28:42;16.40;99.90
16273;DHT22;8244;50.044;9.006;2022-11-15T13:33:45;16.40;99.90
16273;DHT22;8244;50.044;9.006;2022-11-15T13:38:55;16.40;99.90
16273;DHT22;8244;50.044;9.006;2022-11-15T13:44:00;16.50;99.90
16273;DHT22;8244;50.044;9.006;2022-11-15T13:49:03;16.40;99.90
16273;DHT22;8244;50.044;9.006;2022-11-15T13:54:13;16.50;99.90
16273;DHT22;8244;50.044;9.006;2022-11-15T13:59:25;16.50;99.90
16273;DHT22;8244;50.044;9.006;2022-11-15T14:04:28;16.50;99.90
16273;DHT22;8244;50.044;9.006;2022-11-15T14:09:36;16.50;99.90
16273;DHT22;8244;50.044;9.006;2022-11-15T14:14:44;16.40;99.90
16273;DHT22;8244;50.044;9.006;2022-11-15T14:19:46;16.30;99.90
16273;DHT22;8244;50.044;9.006;2022-11-15T14:25:05;16.20;99.90
16273;DHT22;8244;50.044;9.006;2022-11-15T14:30:14;16.00;99.90
16273;DHT22;8244;50.044;9.006;2022-11-15T14:35:18;16.00;99.90
16273;DHT22;8244;50.044;9.006;2022-11-15T14:40:21;15.90;99.90
16273;DHT22;8244;50.044;9.006;2022-11-15T14:45:28;15.80;99.90
16273;DHT22;8244;50.044;9.006;2022-11-15T14:50:29;15.80;99.90
16273;DHT22;8244;50.044;9.006;2022-11-15T14:55:34;15.70;99.90
16273;DHT22;8244;50.044;9.006;2022-11-15T15:00:39;15.70;99.90
16273;DHT22;8244;50.044;9.006;2022-11-15T15:05:43;15.60;99.90
16273;DHT22;8244;50.044;9.006;2022-11-15T15:10:45;15.50;99.90
16273;DHT22;8244;50.044;9.006;2022-11-15T15:15:49;15.40;99.90
16273;DHT22;8244;50.044;9.006;2022-11-15T15:20:55;15.30;99.90
16273;DHT22;8244;50.044;9.006;2022-11-15T15:26:00;15.20;99.90
16273;DHT22;8244;50.044;9.006;2022-11-15T15:31:03;15.10;99.90
16273;DHT22;8244;50.044;9.006;2022-11-15T15:36:05;15.00;99.90
16273;DHT22;8244;50.044;9.006;2022-11-15T15:41:10;14.80;99.90
16273;DHT22;8244;50.044;9.006;2022-11-15T15:46:14;14.60;99.90
16273;DHT22;8244;50.044;9.006;2022-11-15T15:51:16;14.50;99.90
16273;DHT22;8244;50.044;9.006;2022-11-15T15:56:18;14.30;99.90
16273;DHT22;8244;50.044;9.006;2022-11-15T16:01:21;14.10;99.90
16273;DHT22;8244;50.044;9.006;2022-11-15T16:06:36;14.00;99.90
16273;DHT22;8244;50.044;9.006;2022-11-15T16:11:38;13.80;99.90
16273;DHT22;8244;50.044;9.006;2022-11-15T16:16:41;13.70;99.90
16273;DHT22;8244;50.044;9.006;2022-11-15T16:21:43;13.60;99.90
16273;DHT22;8244;50.044;9.006;2022-11-15T16:26:45;13.60;99.90
16273;DHT22;8244;50.044;9.006;2022-11-15T16:31:49;13.50;99.90
16273;DHT22;8244;50.044;9.006;2022-11-15T16:36:51;13.40;99.90
16273;DHT22;8244;50.044;9.006;2022-11-15T16:41:54;13.40;99.90
16273;DHT22;8244;50.044;9.006;2022-11-15T16:46:57;13.30;99.90
16273;DHT22;8244;50.044;9.006;2022-11-15T16:51:58;13.20;99.90
16273;DHT22;8244;50.044;9.006;2022-11-15T16:57:00;13.20;99.90
16273;DHT22;8244;50.044;9.006;2022-11-15T17:02:03;13.10;99.90
16273;DHT22;8244;50.044;9.006;2022-11-15T17:07:05;13.00;99.90
16273;DHT22;8244;50.044;9.006;2022-11-15T17:12:07;12.90;99.90
16273;DHT22;8244;50.044;9.006;2022-11-15T17:17:12;12.80;99.90
16273;DHT22;8244;50.044;9.006;2022-11-15T17:22:14;12.80;99.90
16273;DHT22;8244;50.044;9.006;2022-11-15T17:27:16;12.70;99.90
16273;DHT22;8244;50.044;9.006;2022-11-15T17:32:19;12.60;99.90
16273;DHT22;8244;50.044;9.006;2022-11-15T17:37:21;12.50;99.90
16273;DHT22;8244;50.044;9.006;2022-11-15T17:42:22;12.40;99.90
16273;DHT22;8244;50.044;9.006;2022-11-15T17:47:25;12.40;99.90
16273;DHT22;8244;50.044;9.006;2022-11-15T17:52:27;12.40;99.90
16273;DHT22;8244;50.044;9.006;2022-11-15T17:57:29;12.30;99.90
16273;DHT22;8244;50.044;9.006;2022-11-15T18:02:32;12.30;99.90
16273;DHT22;8244;50.044;9.006;2022-11-15T18:07:33;12.20;99.90
16273;DHT22;8244;50.044;9.006;2022-11-15T18:12:35;12.10;99.90
16273;DHT22;8244;50.044;9.006;2022-11-15T18:17:38;12.10;99.90
16273;DHT22;8244;50.044;9.006;2022-11-15T18:22:40;12.00;99.90
16273;DHT22;8244;50.044;9.006;2022-11-15T18:27:41;12.00;99.90
16273;DHT22;8244;50.044;9.006;2022-11-15T18:32:45;11.90;99.90
16273;DHT22;8244;50.044;9.006;2022-11-15T18:37:46;11.90;99.90
16273;DHT22;8244;50.044;9.006;2022-11-15T18:42:48;11.80;99.90
16273;DHT22;8244;50.044;9.006;2022-11-15T18:47:51;11.80;99.90
16273;DHT22;8244;50.044;9.006;2022-11-15T18:52:52;11.80;99.90
16273;DHT22;8244;50.044;9.006;2022-11-15T18:57:55;11.80;99.90
16273;DHT22;8244;50.044;9.006;2022-11-15T19:02:58;11.80;99.90
16273;DHT22;8244;50.044;9.006;2022-11-15T19:08:00;11.80;99.90
16273;DHT22;8244;50.044;9.006;2022-11-15T19:13:02;11.70;99.90
16273;DHT22;8244;50.044;9.006;2022-11-15T19:18:05;11.70;99.90
16273;DHT22;8244;50.044;9.006;2022-11-15T19:23:06;11.70;99.90
16273;DHT22;8244;50.044;9.006;2022-11-15T19:28:08;11.70;99.90
16273;DHT22;8244;50.044;9.006;2022-11-15T19:33:12;11.80;99.90
16273;DHT22;8244;50.044;9.006;2022-11-15T19:38:14;11.80;99.90
16273;DHT22;8244;50.044;9.006;2022-11-15T19:43:15;11.90;99.90
16273;DHT22;8244;50.044;9.006;2022-11-15T19:48:18;11.90;99.90
16273;DHT22;8244;50.044;9.006;2022-11-15T19:53:22;11.90;99.90
16273;DHT22;8244;50.044;9.006;2022-11-15T19:58:24;11.90;99.90
16273;DHT22;8244;50.044;9.006;2022-11-15T20:03:29;11.90;99.90
16273;DHT22;8244;50.044;9.006;2022-11-15T20:08:31;11.90;99.90
16273;DHT22;8244;50.044;9.006;2022-11-15T20:13:33;11.90;99.90
16273;DHT22;8244;50.044;9.006;2022-11-15T20:18:36;11.90;99.90
16273;DHT22;8244;50.044;9.006;2022-11-15T20:23:38;11.90;99.90
16273;DHT22;8244;50.044;9.006;2022-11-15T20:28:40;12.00;99.90
16273;DHT22;8244;50.044;9.006;2022-11-15T20:33:43;12.00;99.90
16273;DHT22;8244;50.044;9.006;2022-11-15T20:38:44;12.00;99.90
16273;DHT22;8244;50.044;9.006;2022-11-15T20:43:46;12.00;99.90
16273;DHT22;8244;50.044;9.006;2022-11-15T20:48:49;12.00;99.90
16273;DHT22;8244;50.044;9.006;2022-11-15T20:53:51;12.00;99.90
16273;DHT22;8244;50.044;9.006;2022-11-15T20:58:53;12.00;99.90
16273;DHT22;8244;50.044;9.006;2022-11-15T21:03:57;12.00;99.90
16273;DHT22;8244;50.044;9.006;2022-11-15T21:08:59;12.00;99.90
16273;DHT22;8244;50.044;9.006;2022-11-15T21:14:18;12.00;99.90
16273;DHT22;8244;50.044;9.006;2022-11-15T21:19:21;12.00;99.90
16273;DHT22;8244;50.044;9.006;2022-11-15T21:24:24;12.00;99.90
16273;DHT22;8244;50.044;9.006;2022-11-15T21:29:26;12.00;99.90
16273;DHT22;8244;50.044;9.006;2022-11-15T21:34:29;12.00;99.90
16273;DHT22;8244;50.044;9.006;2022-11-15T21:39:31;12.00;99.90
16273;DHT22;8244;50.044;9.006;2022-11-15T21:44:33;12.00;99.90
16273;DHT22;8244;50.044;9.006;2022-11-15T21:49:36;11.90;99.90
16273;DHT22;8244;50.044;9.006;2022-11-15T21:54:37;11.90;99.90
16273;DHT22;8244;50.044;9.006;2022-11-15T21:59:40;11.90;99.90
16273;DHT22;8244;50.044;9.006;2022-11-15T22:04:57;11.80;99.90
16273;DHT22;8244;50.044;9.006;2022-11-15T22:09:59;11.80;99.90
16273;DHT22;8244;50.044;9.006;2022-11-15T22:15:00;11.70;99.90
16273;DHT22;8244;50.044;9.006;2022-11-15T22:20:04;11.80;99.90
16273;DHT22;8244;50.044;9.006;2022-11-15T22:25:07;11.80;99.90
16273;DHT22;8244;50.044;9.006;2022-11-15T22:30:10;11.70;99.90
16273;DHT22;8244;50.044;9.006;2022-11-15T22:35:13;11.70;99.90
16273;DHT22;8244;50.044;9.006;2022-11-15T22:40:16;11.60;99.90
16273;DHT22;8244;50.044;9.006;2022-11-15T22:45:17;11.60;99.90
16273;DHT22;8244;50.044;9.006;2022-11-15T22:50:21;11.50;99.90
16273;DHT22;8244;50.044;9.006;2022-11-15T22:55:23;11.50;99.90
16273;DHT22;8244;50.044;9.006;2022-11-15T23:00:25;11.40;99.90
16273;DHT22;8244;50.044;9.006;2022-11-15T23:05:28;11.40;99.90
16273;DHT22;8244;50.044;9.006;2022-11-15T23:10:30;11.40;99.90
16273;DHT22;8244;50.044;9.006;2022-11-15T23:15:50;11.40;99.90
16273;DHT22;8244;50.044;9.006;2022-11-15T23:21:13;11.40;99.90
16273;DHT22;8244;50.044;9.006;2022-11-15T23:26:15;11.30;99.90
16273;DHT22;8244;50.044;9.006;2022-11-15T23:31:17;11.30;99.90
16273;DHT22;8244;50.044;9.006;2022-11-15T23:36:38;11.20;99.90
16273;DHT22;8244;50.044;9.006;2022-11-15T23:41:40;11.20;99.90
16273;DHT22;8244;50.044;9.006;2022-11-15T23:46:43;11.10;99.90
16273;DHT22;8244;50.044;9.006;2022-11-15T23:51:46;11.10;99.90
16273;DHT22;8244;50.044;9.006;2022-11-15T23:56:49;11.10;99.90
